Time;durP1;ratioP1;P1;durP2;ratioP2;P2;SDS_P1;SDS_P2;PMS_P1;PMS_P2;Temp;Humidity;BMP_temperature;BMP_pressure;BME280_temperature;BME280_humidity;BME280_pressure;Samples;Min_cycle;Max_cycle;Signal;HPM_P1;HPM_P2
2023/04/28 00:00:21;;;;;;;13.13;7.30;;;6.80;99.90;;;;;;5100317;28;20051;-71
2023/04/28 00:02:47;;;;;;;12.32;7.30;;;6.70;99.90;;;;;;5115284;28;20043;-71
2023/04/28 00:05:13;;;;;;;12.93;7.47;;;6.70;99.90;;;;;;5114219;28;20065;-71
2023/04/28 00:07:38;;;;;;;10.80;6.78;;;6.70;99.90;;;;;;5115106;28;20035;-71
2023/04/28 00:10:05;;;;;;;12.43;6.60;;;6.80;99.90;;;;;;5090419;28;20461;-71
2023/04/28 00:12:30;;;;;;;10.13;6.70;;;6.70;99.90;;;;;;5094140;28;20048;-71
2023/04/28 00:14:56;;;;;;;12.45;7.30;;;6.70;99.90;;;;;;5102264;28;20097;-71
2023/04/28 00:17:22;;;;;;;12.27;6.97;;;6.60;99.90;;;;;;5094688;28;20036;-72
2023/04/28 00:19:48;;;;;;;11.63;6.43;;;6.60;99.90;;;;;;5094185;28;20028;-72
2023/04/28 00:22:14;;;;;;;10.73;6.07;;;6.70;99.90;;;;;;5094452;28;20569;-72
2023/04/28 00:24:40;;;;;;;10.20;5.35;;;6.70;99.90;;;;;;5096348;28;20035;-71
2023/04/28 00:27:06;;;;;;;13.00;6.10;;;6.70;99.90;;;;;;5114995;28;20039;-71
2023/04/28 00:29:32;;;;;;;10.50;6.18;;;6.70;99.90;;;;;;5114702;28;20050;-71
2023/04/28 00:31:57;;;;;;;11.20;5.88;;;6.70;99.90;;;;;;5113165;28;20040;-71
2023/04/28 00:34:23;;;;;;;11.80;6.65;;;6.70;99.90;;;;;;5108446;28;20540;-71
2023/04/28 00:36:49;;;;;;;11.52;7.18;;;6.70;99.90;;;;;;5094179;28;20088;-72
2023/04/28 00:39:17;;;;;;;9.77;5.97;;;6.70;99.90;;;;;;5093663;28;20399;-72
2023/04/28 00:41:42;;;;;;;13.25;6.63;;;6.70;99.90;;;;;;5077216;28;20047;-71
2023/04/28 00:44:08;;;;;;;10.82;6.32;;;6.70;99.90;;;;;;5096314;28;20399;-71
2023/04/28 00:46:33;;;;;;;10.95;6.82;;;6.60;99.90;;;;;;5114232;28;20138;-71
2023/04/28 00:48:59;;;;;;;11.30;6.50;;;6.50;99.90;;;;;;5114311;28;20113;-71
2023/04/28 00:51:27;;;;;;;13.55;7.38;;;6.50;99.90;;;;;;5113219;28;20047;-71
2023/04/28 00:53:54;;;;;;;10.20;5.50;;;6.40;99.90;;;;;;5095829;28;20063;-72
2023/04/28 00:56:20;;;;;;;12.18;7.00;;;6.40;99.90;;;;;;5114168;28;20393;-72
2023/04/28 00:58:46;;;;;;;11.32;5.90;;;6.50;99.90;;;;;;5111823;28;20036;-71
2023/04/28 01:01:11;;;;;;;11.40;6.53;;;6.50;99.90;;;;;;5096962;28;20124;-72
2023/04/28 01:03:39;;;;;;;10.13;6.00;;;6.60;99.90;;;;;;5112919;28;20093;-72
2023/04/28 01:06:05;;;;;;;13.82;7.18;;;6.50;99.90;;;;;;5093964;28;20046;-71
2023/04/28 01:08:32;;;;;;;10.88;6.30;;;6.60;99.90;;;;;;5093532;28;20043;-71
2023/04/28 01:10:58;;;;;;;10.50;6.32;;;6.60;99.90;;;;;;5107408;28;20031;-72
2023/04/28 01:13:24;;;;;;;13.13;6.30;;;6.50;99.90;;;;;;5096723;28;20073;-71
2023/04/28 01:15:50;;;;;;;12.52;6.35;;;6.50;99.90;;;;;;5098759;28;20035;-72
2023/04/28 01:18:15;;;;;;;12.27;6.90;;;6.60;99.90;;;;;;5093095;28;20042;-71
2023/04/28 01:20:41;;;;;;;12.50;6.60;;;6.60;99.90;;;;;;5110328;28;20039;-72
2023/04/28 01:23:12;;;;;;;11.73;7.05;;;6.60;99.90;;;;;;5101804;28;20324;-72
2023/04/28 01:25:37;;;;;;;11.45;6.65;;;6.50;99.90;;;;;;5113838;28;20130;-71
2023/04/28 01:28:03;;;;;;;10.45;6.50;;;6.50;99.90;;;;;;5129780;27;20130;-71
2023/04/28 01:30:29;;;;;;;14.10;7.10;;;6.50;99.90;;;;;;5093402;28;20362;-71
2023/04/28 01:32:55;;;;;;;13.10;7.57;;;6.50;99.90;;;;;;5104660;28;20487;-71
2023/04/28 01:35:21;;;;;;;11.35;7.30;;;6.50;99.90;;;;;;5112645;28;20067;-71
2023/04/28 01:37:46;;;;;;;14.35;7.28;;;6.50;99.90;;;;;;5113634;28;20523;-71
2023/04/28 01:40:12;;;;;;;12.95;7.60;;;6.50;99.90;;;;;;5095231;28;20096;-72
2023/04/28 01:42:38;;;;;;;14.25;7.85;;;6.50;99.90;;;;;;5112249;28;20039;-72
2023/04/28 01:45:04;;;;;;;13.52;8.63;;;6.40;99.90;;;;;;5113122;28;20487;-72
2023/04/28 01:47:30;;;;;;;13.98;7.22;;;6.40;99.90;;;;;;5111014;28;20502;-71
2023/04/28 01:49:56;;;;;;;13.00;8.15;;;6.40;99.90;;;;;;5082450;28;20047;-72
2023/04/28 01:52:23;;;;;;;15.27;8.32;;;6.40;99.90;;;;;;5092675;28;20400;-72
2023/04/28 01:54:49;;;;;;;13.98;8.30;;;6.50;99.90;;;;;;5096728;28;20540;-72
2023/04/28 01:57:15;;;;;;;15.90;8.52;;;6.50;99.90;;;;;;5112802;28;20067;-71
2023/04/28 01:59:41;;;;;;;14.70;8.82;;;6.40;99.90;;;;;;5099152;28;20051;-71
2023/04/28 02:02:06;;;;;;;17.17;8.73;;;6.40;99.90;;;;;;5092560;28;20036;-71
2023/04/28 02:04:32;;;;;;;16.20;9.32;;;6.40;99.90;;;;;;5094180;28;20408;-72
2023/04/28 02:06:57;;;;;;;16.38;8.77;;;6.40;99.90;;;;;;5130215;27;20040;-72
2023/04/28 02:09:23;;;;;;;14.77;9.00;;;6.40;99.90;;;;;;5083703;28;20064;-72
2023/04/28 02:11:49;;;;;;;17.00;9.50;;;6.40;99.90;;;;;;5092465;28;20044;-72
2023/04/28 02:14:14;;;;;;;15.25;8.68;;;6.40;99.90;;;;;;5091816;28;20036;-72
2023/04/28 02:16:40;;;;;;;17.17;9.43;;;6.40;99.90;;;;;;5112568;28;20047;-71
2023/04/28 02:19:05;;;;;;;13.75;8.70;;;6.40;99.90;;;;;;5106887;28;20039;-71
2023/04/28 02:21:31;;;;;;;16.33;9.48;;;6.30;99.90;;;;;;5079081;28;20032;-71
2023/04/28 02:23:57;;;;;;;16.23;9.25;;;6.30;99.90;;;;;;5104831;28;20032;-71
2023/04/28 02:26:23;;;;;;;14.18;8.57;;;6.30;99.90;;;;;;5095442;28;20096;-71
2023/04/28 02:28:49;;;;;;;18.52;9.90;;;6.30;99.90;;;;;;5111234;28;20028;-71
2023/04/28 02:31:15;;;;;;;13.32;8.73;;;6.30;99.90;;;;;;5094401;28;20488;-71
2023/04/28 02:33:43;;;;;;;16.30;9.65;;;6.40;99.90;;;;;;5112466;28;20044;-71
2023/04/28 02:36:09;;;;;;;16.58;9.60;;;6.40;99.90;;;;;;5111313;28;20044;-71
2023/04/28 02:38:35;;;;;;;19.55;10.43;;;6.30;99.90;;;;;;5091888;28;20044;-71
2023/04/28 02:41:07;;;;;;;17.17;9.95;;;6.30;99.90;;;;;;5091960;28;20484;-71
2023/04/28 02:43:34;;;;;;;18.88;11.45;;;6.30;99.90;;;;;;5092293;28;20040;-71
2023/04/28 02:45:59;;;;;;;16.95;9.95;;;6.30;99.90;;;;;;5105609;28;20118;-71
2023/04/28 02:48:25;;;;;;;15.88;9.52;;;6.30;99.90;;;;;;5112503;28;20523;-71
2023/04/28 02:50:52;;;;;;;17.85;11.15;;;6.30;99.90;;;;;;5081175;28;20480;-71
2023/04/28 02:53:21;;;;;;;16.50;10.52;;;6.30;99.90;;;;;;5091865;28;20132;-71
2023/04/28 02:55:47;;;;;;;16.27;10.20;;;6.20;99.90;;;;;;5074625;28;20508;-71
2023/04/28 02:58:13;;;;;;;15.00;9.68;;;6.30;99.90;;;;;;5091661;28;20519;-71
2023/04/28 03:00:38;;;;;;;16.75;10.13;;;6.30;99.90;;;;;;5074971;28;20132;-71
2023/04/28 03:03:04;;;;;;;16.23;9.95;;;6.30;99.90;;;;;;5092137;28;20036;-71
2023/04/28 03:05:29;;;;;;;17.13;10.68;;;6.30;99.90;;;;;;5101350;28;20039;-71
2023/04/28 03:07:55;;;;;;;16.42;10.57;;;6.30;99.90;;;;;;5111164;28;20119;-71
2023/04/28 03:10:21;;;;;;;18.30;11.02;;;6.20;99.90;;;;;;5112305;28;20036;-71
2023/04/28 03:12:46;;;;;;;19.63;11.10;;;6.20;99.90;;;;;;5112065;28;20072;-71
2023/04/28 03:15:12;;;;;;;15.73;10.25;;;6.10;99.90;;;;;;5120190;28;20050;-71
2023/04/28 03:17:40;;;;;;;17.25;10.82;;;6.20;99.90;;;;;;5091762;28;20047;-71
2023/04/28 03:20:07;;;;;;;19.27;11.52;;;6.10;99.90;;;;;;5097740;28;20118;-71
2023/04/28 03:22:33;;;;;;;17.35;10.10;;;6.10;99.90;;;;;;5111944;28;20039;-71
2023/04/28 03:24:59;;;;;;;18.27;12.07;;;6.10;99.90;;;;;;5093225;28;20043;-71
2023/04/28 03:27:25;;;;;;;21.63;12.35;;;6.00;99.90;;;;;;5087903;28;20028;-71
2023/04/28 03:29:50;;;;;;;19.60;12.52;;;6.00;99.90;;;;;;5089599;28;20036;-71
2023/04/28 03:32:16;;;;;;;19.75;12.13;;;6.00;99.90;;;;;;5082866;28;20028;-71
2023/04/28 03:34:41;;;;;;;19.65;12.27;;;6.00;99.90;;;;;;5094800;28;20117;-71
2023/04/28 03:37:07;;;;;;;17.98;11.60;;;6.00;99.90;;;;;;5112328;28;20038;-71
2023/04/28 03:39:33;;;;;;;21.33;13.23;;;6.00;99.90;;;;;;5095143;28;20076;-71
2023/04/28 03:41:58;;;;;;;18.65;12.25;;;5.90;99.90;;;;;;5112307;28;20067;-71
2023/04/28 03:44:24;;;;;;;19.13;12.18;;;6.00;99.90;;;;;;5111933;27;20093;-71
2023/04/28 03:46:49;;;;;;;21.20;12.27;;;6.00;99.90;;;;;;5121334;27;20047;-71
2023/04/28 03:49:15;;;;;;;20.27;12.82;;;6.00;99.90;;;;;;5111752;28;20046;-71
2023/04/28 03:51:41;;;;;;;23.25;12.93;;;5.90;99.90;;;;;;5115457;28;20039;-71
2023/04/28 03:54:06;;;;;;;20.98;13.00;;;5.90;99.90;;;;;;5115615;28;20122;-71
2023/04/28 03:56:33;;;;;;;19.65;11.75;;;5.90;99.90;;;;;;5094752;28;20056;-71
2023/04/28 03:58:58;;;;;;;20.05;11.57;;;5.90;99.90;;;;;;5115626;28;20407;-71
2023/04/28 04:01:24;;;;;;;19.75;11.90;;;5.90;99.90;;;;;;5115659;28;20035;-71
2023/04/28 04:03:50;;;;;;;20.42;13.35;;;5.90;99.90;;;;;;5098301;28;20040;-71
2023/04/28 04:06:15;;;;;;;22.33;13.00;;;5.90;99.90;;;;;;5114271;27;20440;-71
2023/04/28 04:08:41;;;;;;;21.98;12.85;;;5.90;99.90;;;;;;5094715;28;20149;-71
2023/04/28 04:11:07;;;;;;;20.05;12.52;;;5.90;99.90;;;;;;5108376;28;20035;-71
2023/04/28 04:13:32;;;;;;;22.27;12.90;;;5.90;99.90;;;;;;5098022;28;20035;-71
2023/04/28 04:15:58;;;;;;;19.90;11.75;;;5.80;99.90;;;;;;5099518;28;20477;-71
2023/04/28 04:18:24;;;;;;;19.50;11.85;;;5.90;99.90;;;;;;5111501;28;20459;-71
2023/04/28 04:20:49;;;;;;;21.60;12.68;;;5.90;99.90;;;;;;5120681;27;20040;-71
2023/04/28 04:23:15;;;;;;;20.60;13.70;;;5.90;99.90;;;;;;5094646;28;20047;-71
2023/04/28 04:25:41;;;;;;;21.50;13.38;;;5.90;99.90;;;;;;5104393;28;20043;-71
2023/04/28 04:28:07;;;;;;;22.23;13.35;;;5.90;99.90;;;;;;5094300;28;20036;-71
2023/04/28 04:30:32;;;;;;;20.98;12.55;;;5.90;99.90;;;;;;5093766;28;20042;-71
2023/04/28 04:32:58;;;;;;;22.38;12.70;;;5.90;99.90;;;;;;5111323;28;20037;-72
2023/04/28 04:35:24;;;;;;;20.05;12.50;;;5.90;99.90;;;;;;5110753;27;20039;-71
2023/04/28 04:37:50;;;;;;;20.50;12.32;;;5.90;99.90;;;;;;5094113;28;20028;-71
2023/04/28 04:40:15;;;;;;;23.17;13.45;;;5.80;99.90;;;;;;5093820;28;20039;-71
2023/04/28 04:42:41;;;;;;;20.83;12.82;;;5.90;99.90;;;;;;5112176;27;20550;-71
2023/04/28 04:45:07;;;;;;;19.60;12.13;;;5.90;99.90;;;;;;5100217;28;20047;-71
2023/04/28 04:47:33;;;;;;;20.92;12.63;;;5.90;99.90;;;;;;5114283;28;20514;-71
2023/04/28 04:49:58;;;;;;;20.50;12.05;;;5.80;99.90;;;;;;5114311;28;20035;-71
2023/04/28 04:52:24;;;;;;;16.83;10.20;;;5.90;99.90;;;;;;5114127;28;20453;-71
2023/04/28 04:54:50;;;;;;;21.95;11.90;;;5.90;99.90;;;;;;5092029;28;20036;-71
2023/04/28 04:57:16;;;;;;;20.00;13.07;;;6.00;99.90;;;;;;5093588;28;20496;-71
2023/04/28 04:59:41;;;;;;;21.40;12.98;;;6.00;99.90;;;;;;5093715;28;20032;-71
2023/04/28 05:02:07;;;;;;;19.67;12.18;;;5.90;99.90;;;;;;5093644;28;20122;-72
2023/04/28 05:04:33;;;;;;;22.70;13.00;;;5.90;99.90;;;;;;5095726;28;20537;-72
2023/04/28 05:06:58;;;;;;;21.35;13.55;;;6.00;99.90;;;;;;5113899;28;20040;-72
2023/04/28 05:09:24;;;;;;;19.73;12.48;;;6.00;99.90;;;;;;5101909;28;20465;-72
2023/04/28 05:11:49;;;;;;;22.10;12.93;;;6.00;99.90;;;;;;5105314;28;20032;-72
2023/04/28 05:14:16;;;;;;;19.33;11.57;;;6.00;99.90;;;;;;5112979;28;20082;-72
2023/04/28 05:16:42;;;;;;;19.83;12.57;;;6.00;99.90;;;;;;5096704;28;20039;-72
2023/04/28 05:19:08;;;;;;;18.48;11.15;;;6.00;99.90;;;;;;5113799;28;20040;-72
2023/04/28 05:21:33;;;;;;;20.48;12.65;;;6.00;99.90;;;;;;5129498;27;20039;-72
2023/04/28 05:23:59;;;;;;;20.92;12.93;;;6.10;99.90;;;;;;5113595;28;20092;-72
2023/04/28 05:26:25;;;;;;;22.25;12.90;;;6.00;99.90;;;;;;5109365;28;20047;-72
2023/04/28 05:28:50;;;;;;;18.67;11.60;;;6.00;99.90;;;;;;5096884;28;20043;-72
2023/04/28 05:31:16;;;;;;;20.38;12.43;;;6.10;99.90;;;;;;5112238;28;20078;-71
2023/04/28 05:33:42;;;;;;;21.90;12.40;;;6.20;99.90;;;;;;5096458;28;20388;-71
2023/04/28 05:36:08;;;;;;;19.83;12.32;;;6.20;99.90;;;;;;5129776;27;20071;-71
2023/04/28 05:38:34;;;;;;;19.42;10.90;;;6.20;99.90;;;;;;5113294;28;20048;-71
2023/04/28 05:41:01;;;;;;;21.08;12.25;;;6.30;99.90;;;;;;5084474;28;20093;-72
2023/04/28 05:43:27;;;;;;;20.40;12.20;;;6.30;99.90;;;;;;5076018;28;20048;-70
2023/04/28 05:45:52;;;;;;;22.13;13.75;;;6.30;99.90;;;;;;5095923;28;20042;-70
2023/04/28 05:48:18;;;;;;;20.45;11.95;;;6.30;99.90;;;;;;5130169;27;20039;-70
2023/04/28 05:50:44;;;;;;;20.60;12.45;;;6.30;99.90;;;;;;5111368;28;20035;-70
2023/04/28 05:53:10;;;;;;;22.15;11.95;;;6.30;99.90;;;;;;5095482;28;20381;-70
2023/04/28 05:55:35;;;;;;;19.33;11.07;;;6.30;99.90;;;;;;5100653;28;20441;-70
2023/04/28 05:58:02;;;;;;;18.40;12.13;;;6.40;99.90;;;;;;5080637;28;20036;-70
2023/04/28 06:00:27;;;;;;;17.17;11.48;;;6.40;99.90;;;;;;5110881;28;20036;-70
2023/04/28 06:02:53;;;;;;;19.88;11.63;;;6.40;99.90;;;;;;5100808;28;20042;-70
2023/04/28 06:05:20;;;;;;;19.48;12.73;;;6.50;99.90;;;;;;5095821;28;20405;-70
2023/04/28 06:07:45;;;;;;;19.63;12.32;;;6.60;99.90;;;;;;5111484;28;20141;-70
2023/04/28 06:10:11;;;;;;;22.85;14.65;;;6.60;99.90;;;;;;5098766;28;20516;-70
2023/04/28 06:12:37;;;;;;;19.95;12.00;;;6.60;99.90;;;;;;5084648;28;21129;-71
2023/04/28 06:15:03;;;;;;;20.65;12.50;;;6.50;99.90;;;;;;5090279;28;20423;-71
2023/04/28 06:17:31;;;;;;;20.55;12.38;;;6.60;99.90;;;;;;5111420;28;20053;-71
2023/04/28 06:19:58;;;;;;;21.95;12.05;;;6.60;99.90;;;;;;5094912;28;20032;-71
2023/04/28 06:22:26;;;;;;;19.50;12.10;;;6.60;99.90;;;;;;5098493;28;20082;-71
2023/04/28 06:24:52;;;;;;;20.67;12.13;;;6.70;99.90;;;;;;5105104;28;20035;-71
2023/04/28 06:27:17;;;;;;;17.15;11.05;;;6.70;99.90;;;;;;5100160;28;20036;-71
2023/04/28 06:29:44;;;;;;;18.17;12.05;;;6.80;99.90;;;;;;5092680;28;20035;-71
2023/04/28 06:32:10;;;;;;;19.00;12.05;;;6.80;99.90;;;;;;5100601;28;20131;-71
2023/04/28 06:34:36;;;;;;;18.90;12.65;;;6.90;99.90;;;;;;5099656;28;20119;-71
2023/04/28 06:37:02;;;;;;;19.27;12.02;;;6.90;99.90;;;;;;5105560;28;20035;-72
2023/04/28 06:39:28;;;;;;;16.08;11.18;;;6.90;99.90;;;;;;5109706;27;20048;-72
2023/04/28 06:41:53;;;;;;;18.15;11.00;;;7.00;99.90;;;;;;5111643;28;20043;-72
2023/04/28 06:44:19;;;;;;;17.75;10.82;;;7.00;99.90;;;;;;5124818;28;20035;-72
2023/04/28 06:46:44;;;;;;;19.98;11.10;;;7.00;99.90;;;;;;5088622;28;20047;-72
2023/04/28 06:49:10;;;;;;;18.98;11.35;;;7.00;99.90;;;;;;5112373;28;20051;-71
2023/04/28 06:51:36;;;;;;;20.35;11.82;;;7.00;99.90;;;;;;5106382;28;20039;-71
2023/04/28 06:54:01;;;;;;;17.15;11.00;;;7.10;99.90;;;;;;5116514;28;20499;-71
2023/04/28 06:56:27;;;;;;;18.88;11.82;;;7.10;99.90;;;;;;5099917;28;20051;-71
2023/04/28 06:58:57;;;;;;;19.23;10.90;;;7.20;99.90;;;;;;5088207;28;20047;-75
2023/04/28 07:01:23;;;;;;;22.98;10.98;;;7.30;99.90;;;;;;5096721;28;20035;-74
2023/04/28 07:03:49;;;;;;;14.68;10.05;;;7.30;99.90;;;;;;5088544;28;20080;-74
2023/04/28 07:06:15;;;;;;;17.05;10.35;;;7.40;99.90;;;;;;5098263;28;20027;-74
2023/04/28 07:08:42;;;;;;;17.02;10.45;;;7.50;99.90;;;;;;5113508;28;20043;-74
2023/04/28 07:11:07;;;;;;;19.48;11.40;;;7.50;99.90;;;;;;5101775;28;20032;-74
2023/04/28 07:13:33;;;;;;;15.55;9.60;;;7.50;99.90;;;;;;5131290;27;20052;-76
2023/04/28 07:15:58;;;;;;;19.38;11.02;;;7.60;99.90;;;;;;5089390;28;20044;-78
2023/04/28 07:18:24;;;;;;;18.90;11.50;;;7.50;99.90;;;;;;5098222;28;20119;-74
2023/04/28 07:20:50;;;;;;;17.17;11.18;;;7.60;99.90;;;;;;5088012;28;20038;-72
2023/04/28 07:23:16;;;;;;;19.77;10.63;;;7.60;99.90;;;;;;5095325;28;20044;-72
2023/04/28 07:25:42;;;;;;;17.50;11.77;;;7.70;99.90;;;;;;5104096;28;20190;-73
2023/04/28 07:28:08;;;;;;;16.55;10.40;;;7.80;99.90;;;;;;5114025;28;20399;-72
2023/04/28 07:30:34;;;;;;;15.60;10.18;;;7.80;99.90;;;;;;5096997;28;20039;-73
2023/04/28 07:33:00;;;;;;;16.58;10.05;;;7.80;99.90;;;;;;5113417;28;20044;-73
2023/04/28 07:35:26;;;;;;;17.08;10.82;;;7.90;99.90;;;;;;5098471;28;20488;-73
2023/04/28 07:37:52;;;;;;;18.73;11.18;;;7.80;99.90;;;;;;5103507;28;20046;-73
2023/04/28 07:40:18;;;;;;;19.95;10.68;;;8.00;99.90;;;;;;5113008;28;20032;-73
2023/04/28 07:42:44;;;;;;;15.25;10.02;;;7.90;99.90;;;;;;5089831;28;20047;-73
2023/04/28 07:45:10;;;;;;;17.25;10.50;;;8.00;99.90;;;;;;5096231;28;20418;-73
2023/04/28 07:47:36;;;;;;;16.75;10.18;;;8.00;99.90;;;;;;5111890;28;20547;-73
2023/04/28 07:50:03;;;;;;;15.52;10.20;;;8.10;99.90;;;;;;5095964;28;20042;-73
2023/04/28 07:52:30;;;;;;;17.50;11.25;;;8.20;99.90;;;;;;5097444;28;20043;-73
2023/04/28 07:54:56;;;;;;;16.60;11.35;;;8.30;99.90;;;;;;5093305;28;20035;-73
2023/04/28 07:57:21;;;;;;;17.60;10.25;;;8.30;99.90;;;;;;5107735;28;20055;-73
2023/04/28 07:59:47;;;;;;;15.63;10.18;;;8.30;99.90;;;;;;5097569;28;20044;-73
2023/04/28 08:02:13;;;;;;;16.23;11.00;;;8.40;99.90;;;;;;5096527;28;20044;-73
2023/04/28 08:04:39;;;;;;;18.45;11.00;;;8.40;99.90;;;;;;5104766;28;20044;-73
2023/04/28 08:07:05;;;;;;;16.30;9.95;;;8.50;99.90;;;;;;5094722;28;20125;-73
2023/04/28 08:09:31;;;;;;;16.48;9.63;;;8.50;99.90;;;;;;5093593;28;20047;-73
2023/04/28 08:11:57;;;;;;;16.85;10.07;;;8.60;99.90;;;;;;5101687;28;20042;-73
2023/04/28 08:14:23;;;;;;;15.73;9.90;;;8.60;99.90;;;;;;5111865;28;20068;-73
2023/04/28 08:16:49;;;;;;;18.08;10.52;;;8.60;99.90;;;;;;5113457;28;20144;-73
2023/04/28 08:19:15;;;;;;;15.15;9.00;;;8.60;99.90;;;;;;5110019;28;20043;-73
2023/04/28 08:21:40;;;;;;;16.48;10.43;;;8.70;99.90;;;;;;5096881;28;20488;-73
2023/04/28 08:24:07;;;;;;;16.83;10.55;;;8.80;99.90;;;;;;5102887;28;20116;-73
2023/04/28 08:26:32;;;;;;;14.77;9.25;;;8.80;99.90;;;;;;5105198;28;20402;-73
2023/04/28 08:28:58;;;;;;;15.93;9.80;;;8.80;99.90;;;;;;5105490;28;20040;-73
2023/04/28 08:31:24;;;;;;;17.25;9.68;;;8.80;99.90;;;;;;5098854;27;20043;-73
2023/04/28 08:33:50;;;;;;;16.83;10.32;;;8.90;99.90;;;;;;5101314;28;20034;-73
2023/04/28 08:36:17;;;;;;;15.98;9.93;;;8.90;99.90;;;;;;5096099;28;20040;-76
2023/04/28 08:38:43;;;;;;;18.40;10.27;;;9.00;99.90;;;;;;5077980;28;20453;-72
2023/04/28 08:41:10;;;;;;;13.20;9.40;;;9.10;99.90;;;;;;5094604;28;20485;-74
2023/04/28 08:43:36;;;;;;;14.90;9.43;;;9.10;99.90;;;;;;5104905;28;20086;-74
2023/04/28 08:46:07;;;;;;;16.25;9.90;;;9.20;99.90;;;;;;5105499;28;20451;-75
2023/04/28 08:48:47;;;;;;;15.63;10.15;;;9.20;99.90;;;;;;5104737;28;20845;-75
2023/04/28 08:51:31;;;;;;;15.48;9.10;;;9.10;99.90;;;;;;5112065;28;20036;-77
2023/04/28 08:54:00;;;;;;;15.82;9.70;;;9.30;99.90;;;;;;5094615;28;20123;-77
2023/04/28 08:56:31;;;;;;;15.13;8.93;;;9.20;99.90;;;;;;5110255;28;20048;-77
2023/04/28 08:59:03;;;;;;;16.35;10.80;;;9.10;99.90;;;;;;5099085;28;20496;-77
2023/04/28 09:01:30;;;;;;;19.42;11.20;;;9.20;99.90;;;;;;5079332;28;20042;-77
2023/04/28 09:03:56;;;;;;;19.02;10.25;;;9.30;99.90;;;;;;5094121;28;20123;-76
2023/04/28 09:06:22;;;;;;;15.18;10.55;;;9.40;99.90;;;;;;5083821;28;20028;-77
2023/04/28 09:08:48;;;;;;;18.35;11.88;;;9.50;99.90;;;;;;5103199;28;20084;-77
2023/04/28 09:11:15;;;;;;;14.15;10.05;;;9.60;99.90;;;;;;5118744;27;20040;-77
2023/04/28 09:13:41;;;;;;;16.63;10.50;;;9.80;99.90;;;;;;5083365;28;20036;-77
2023/04/28 09:16:06;;;;;;;15.13;9.93;;;9.90;99.90;;;;;;5084226;28;20035;-74
2023/04/28 09:18:32;;;;;;;16.60;10.77;;;10.00;99.90;;;;;;5110471;28;20039;-74
2023/04/28 09:21:08;;;;;;;15.75;10.98;;;10.10;99.90;;;;;;5099409;28;20488;-74
2023/04/28 09:23:47;;;;;;;17.55;9.70;;;10.10;99.90;;;;;;5112302;27;20148;-74
2023/04/28 09:26:12;;;;;;;14.55;9.35;;;10.30;99.90;;;;;;5111401;28;20040;-74
2023/04/28 09:28:38;;;;;;;15.65;10.25;;;10.30;99.90;;;;;;5103082;28;20097;-74
2023/04/28 09:31:03;;;;;;;15.70;10.07;;;10.30;99.90;;;;;;5094093;28;20040;-75
2023/04/28 09:33:29;;;;;;;13.60;9.60;;;10.40;99.90;;;;;;5094384;28;20031;-74
2023/04/28 09:35:55;;;;;;;17.85;10.02;;;10.50;99.90;;;;;;5107535;28;20179;-74
2023/04/28 09:38:22;;;;;;;15.82;9.57;;;10.40;99.90;;;;;;5107291;28;20378;-74
2023/04/28 09:41:01;;;;;;;14.07;9.88;;;10.50;99.90;;;;;;5101575;28;20429;-75
2023/04/28 09:43:34;;;;;;;15.65;10.05;;;10.60;99.90;;;;;;5096412;28;20129;-74
2023/04/28 09:46:04;;;;;;;15.50;10.43;;;10.60;99.90;;;;;;5108044;28;20050;-74
2023/04/28 09:48:37;;;;;;;13.32;10.88;;;10.50;99.90;;;;;;5089102;28;20090;-75
2023/04/28 09:51:06;;;;;;;;;;;10.60;99.90;;;;;;5103049;27;20044;-75
2023/04/28 09:53:33;;;;;;;16.33;10.50;;;10.60;99.90;;;;;;5098518;28;19919;-75
2023/04/28 09:56:01;;;;;;;16.35;10.38;;;10.70;99.90;;;;;;5082623;28;20083;-75
2023/04/28 09:58:28;;;;;;;14.75;9.60;;;10.80;99.90;;;;;;5086444;28;20035;-75
2023/04/28 10:00:57;;;;;;;17.95;10.57;;;10.90;99.90;;;;;;5094823;28;20091;-75
2023/04/28 10:03:28;;;;;;;15.05;9.85;;;11.00;99.90;;;;;;5108096;28;20051;-75
2023/04/28 10:05:55;;;;;;;15.98;10.00;;;11.00;99.90;;;;;;5097852;28;20047;-75
2023/04/28 10:08:22;;;;;;;14.95;9.40;;;11.10;99.90;;;;;;5109414;28;20085;-80
2023/04/28 10:10:48;;;;;;;16.70;10.00;;;11.20;99.90;;;;;;5097083;28;20040;-81
2023/04/28 10:13:21;;;;;;;15.95;9.85;;;11.50;99.90;;;;;;5096285;28;20404;-81
2023/04/28 10:15:48;;;;;;;14.13;9.48;;;11.60;99.90;;;;;;5093809;28;20483;-81
2023/04/28 10:18:14;;;;;;;16.33;8.75;;;11.70;99.90;;;;;;5091614;28;20500;-81
2023/04/28 10:20:47;;;;;;;15.07;9.43;;;11.70;99.90;;;;;;5108349;28;20434;-81
2023/04/28 10:23:40;;;;;;;14.50;9.73;;;11.70;99.90;;;;;;5092990;28;20092;-81
2023/04/28 10:26:11;;;;;;;15.55;9.63;;;11.60;99.90;;;;;;5100249;27;20502;-80
2023/04/28 10:28:45;;;;;;;16.80;10.77;;;11.70;99.90;;;;;;5105075;28;20514;-81
2023/04/28 10:31:22;;;;;;;13.27;8.88;;;11.70;99.90;;;;;;5092193;28;20434;-81
2023/04/28 10:33:48;;;;;;;15.80;10.40;;;11.80;99.90;;;;;;5113538;28;20165;-81
2023/04/28 10:36:46;;;;;;;16.92;10.57;;;11.90;99.90;;;;;;5094397;28;20047;-82
2023/04/28 10:39:11;;;;;;;15.75;9.13;;;12.10;99.90;;;;;;5077415;28;20089;-82
2023/04/28 10:41:37;;;;;;;15.15;8.75;;;12.20;99.90;;;;;;5092866;28;20480;-81
2023/04/28 10:44:27;;;;;;;14.10;8.65;;;12.40;99.90;;;;;;5102935;28;20043;-80
2023/04/28 10:47:05;;;;;;;14.95;9.77;;;12.50;99.90;;;;;;5091703;28;20046;-81
2023/04/28 10:50:02;;;;;;;16.90;10.88;;;12.50;99.90;;;;;;5074829;28;20075;-81
2023/04/28 10:52:40;;;;;;;15.48;9.90;;;12.50;99.90;;;;;;5093625;28;20126;-81
2023/04/28 10:55:31;;;;;;;11.90;8.63;;;12.40;99.90;;;;;;5109243;28;20028;-81
2023/04/28 10:58:15;;;;;;;17.23;10.13;;;12.40;99.90;;;;;;5083290;28;20044;-81
2023/04/28 11:00:42;;;;;;;13.48;9.18;;;12.40;99.90;;;;;;5083988;28;20058;-81
2023/04/28 11:03:08;;;;;;;15.38;9.73;;;12.40;99.90;;;;;;5087812;28;20051;-74
2023/04/28 11:05:34;;;;;;;14.98;9.55;;;12.40;99.90;;;;;;5085668;28;20040;-75
2023/04/28 11:08:32;;;;;;;11.20;8.55;;;12.30;99.90;;;;;;5088102;28;20044;-75
2023/04/28 11:11:12;;;;;;;15.38;9.10;;;12.50;99.90;;;;;;5047009;28;20048;-75
2023/04/28 11:13:38;;;;;;;12.02;8.82;;;12.40;99.90;;;;;;5074103;28;20032;-75
2023/04/28 11:16:07;;;;;;;14.20;8.30;;;12.40;99.90;;;;;;5091018;28;20184;-75
2023/04/28 11:18:56;;;;;;;14.88;9.77;;;12.40;99.90;;;;;;5090318;28;20036;-75
2023/04/28 11:21:22;;;;;;;13.10;9.60;;;12.40;99.90;;;;;;5094965;28;20043;-75
2023/04/28 11:23:49;;;;;;;15.82;9.82;;;12.50;99.90;;;;;;5103639;28;20122;-75
2023/04/28 11:26:15;;;;;;;14.50;9.32;;;12.50;99.90;;;;;;5100404;28;20032;-75
2023/04/28 11:28:52;;;;;;;13.32;8.65;;;12.60;99.90;;;;;;5081233;28;20036;-75
2023/04/28 11:31:21;;;;;;;12.10;9.68;;;12.60;99.90;;;;;;5091931;28;20047;-74
2023/04/28 11:33:59;;;;;;;14.02;9.90;;;12.70;99.90;;;;;;5075453;28;20044;-74
2023/04/28 11:36:27;;;;;;;12.30;9.00;;;12.70;99.90;;;;;;5093051;28;20072;-74
2023/04/28 11:38:55;;;;;;;14.77;9.48;;;12.70;99.90;;;;;;5102777;28;20044;-75
2023/04/28 11:41:21;;;;;;;13.07;9.50;;;12.80;99.90;;;;;;5095178;28;20588;-75
2023/04/28 11:43:47;;;;;;;14.73;9.63;;;12.70;99.90;;;;;;5106876;28;20039;-74
2023/04/28 11:46:21;;;;;;;14.90;9.50;;;12.70;99.90;;;;;;5083043;28;20049;-75
2023/04/28 11:48:47;;;;;;;12.98;8.88;;;12.80;99.90;;;;;;5111706;27;20543;-75
2023/04/28 11:51:33;;;;;;;15.45;10.23;;;12.70;99.90;;;;;;5115208;28;20039;-74
2023/04/28 11:54:01;;;;;;;16.35;9.85;;;12.70;99.90;;;;;;5096689;28;20515;-74
2023/04/28 11:56:27;;;;;;;13.60;9.45;;;12.70;99.90;;;;;;5097313;28;20054;-74
2023/04/28 11:59:00;;;;;;;13.05;9.15;;;12.70;99.90;;;;;;5120628;27;20070;-74
2023/04/28 12:01:26;;;;;;;14.43;9.27;;;12.60;99.90;;;;;;5121106;27;20071;-74
2023/04/28 12:03:51;;;;;;;13.52;9.10;;;12.70;99.90;;;;;;5092346;28;20101;-74
2023/04/28 12:06:17;;;;;;;13.75;9.48;;;12.80;99.90;;;;;;5100246;28;20510;-74
2023/04/28 12:08:43;;;;;;;14.23;9.95;;;12.80;99.90;;;;;;5097411;28;20075;-74
2023/04/28 12:11:13;;;;;;;14.32;9.23;;;12.80;99.90;;;;;;5093832;28;20101;-74
2023/04/28 12:13:40;;;;;;;15.43;9.63;;;12.80;99.90;;;;;;5079680;28;20084;-74
2023/04/28 12:16:07;;;;;;;15.77;8.88;;;12.80;99.90;;;;;;5076422;28;20028;-74
2023/04/28 12:18:37;;;;;;;14.82;9.05;;;12.90;99.90;;;;;;5109146;28;20109;-74
2023/04/28 12:21:04;;;;;;;12.68;7.50;;;12.90;99.90;;;;;;5116086;27;20027;-74
2023/04/28 12:23:35;;;;;;;14.73;9.85;;;13.10;99.90;;;;;;5098329;28;20039;-74
2023/04/28 12:26:01;;;;;;;13.68;9.15;;;13.20;99.90;;;;;;5112492;28;20039;-71
2023/04/28 12:28:40;;;;;;;12.32;9.35;;;13.10;99.90;;;;;;5109343;28;20040;-75
2023/04/28 12:31:07;;;;;;;13.48;9.85;;;13.10;99.90;;;;;;5096513;28;20036;-75
2023/04/28 12:33:36;;;;;;;13.70;8.85;;;13.10;99.90;;;;;;5114250;28;20039;-75
2023/04/28 12:36:03;;;;;;;15.88;10.40;;;13.10;99.90;;;;;;5097064;28;20035;-75
2023/04/28 12:38:30;;;;;;;16.27;10.07;;;13.00;99.90;;;;;;5095645;28;20035;-75